KRPJ

Rochelle Municipal-Koritz Field Airport

Rochelle, Illinois, USA
METAR KRPJ 260355Z AUTO 22005KT 10SM SCT060 20/19 A2982 RMK AO2 T02040191
Observed Flight Rules
May-26 @ 03:55 UTC (23 minutes ago) Visual Flight Rules
Wind Visibility Clouds
220° at 5 knots 10 miles
  • Scattered at 6,000' AGL
Temperatures Readings
Current 20°C / 68°F
Dewpoint 19°C / 66°F
Humidity 94%
Altimeter 29.82" Hg
Pressure 1010 hPa
Elevation 238
METAR KRPJ 260355Z AUTO 22005KT 10SM SCT060 20/19 A2982 RMK AO2 T02040191
Observed Flight Rules
May-26 @ 03:55 UTC
(23 minutes ago)
VFR
Wind Visibility
220° at 5 knots 10 miles
Clouds
  • Scattered at 6,000' AGL
Temperature Dewpoint
20°C / 68°F 19°C / 66°F
Humidity Altimeter Pressure
94% 29.82" Hg 1010 hPa